Milton, Florida
Current Conditions -  °F | °C
As of 11:56 PM on Wednesday 28 Jan 2015 (Local Time) from KNDZ Reporting Station
Clear Clear  
Wind Chill: 44°   Ceiling: Unl
Heat Index: 46°   Visibility: 10mi
Dew Point: 39°   Wind: 5mph
Humidity: 76%   Direction: 120°ESE
Pressure: 30.24"   Gusts: NA
Location:  30.63°N, 87.04°W
Report Text: KNDZ 290556Z AUTO 12004KT 10SM CLR 08/04 A3024 RMK AO2 SLP229 T00780039 10122 20061 401890028 58009
Loading
Personal Weather Stations






























Interactive Weather Map New forecast layout! Learn more

10-Day Weather Forecast

Advertisements
Track Severe Weather on mobile